Time;durP1;ratioP1;P1;durP2;ratioP2;P2;SDS_P1;SDS_P2;PMS_P1;PMS_P2;Temp;Humidity;BMP_temperature;BMP_pressure;BME280_temperature;BME280_humidity;BME280_pressure;Samples;Min_cycle;Max_cycle;Signal;HPM_P1;HPM_P2
2020/12/23 00:01:46;;;;;;;4.27;3.00;;;;;;;8.53;83.79;100686.25;5028184;28;20207;-64
2020/12/23 00:04:12;;;;;;;3.90;2.90;;;;;;;8.54;84.46;100695.91;5026647;28;20194;-66
2020/12/23 00:06:39;;;;;;;3.80;2.80;;;;;;;8.53;84.02;100702.16;5032810;28;20197;-66
2020/12/23 00:09:06;;;;;;;4.40;3.30;;;;;;;8.52;84.25;100703.09;5018371;28;20746;-65
2020/12/23 00:11:32;;;;;;;4.40;2.53;;;;;;;8.51;83.91;100696.06;5017030;28;20297;-66
2020/12/23 00:13:59;;;;;;;4.17;3.13;;;;;;;8.50;84.09;100708.50;5023714;28;20253;-65
2020/12/23 00:16:25;;;;;;;3.97;2.63;;;;;;;8.49;84.29;100704.13;5025716;28;20302;-65
2020/12/23 00:18:51;;;;;;;7.43;3.23;;;;;;;8.49;84.09;100703.25;5015300;28;20265;-65
2020/12/23 00:21:17;;;;;;;3.43;3.00;;;;;;;8.49;84.11;100714.72;5015030;28;20210;-65
2020/12/23 00:23:44;;;;;;;5.57;3.27;;;;;;;8.49;83.87;100719.19;5015446;28;20207;-64
2020/12/23 00:26:11;;;;;;;4.80;2.90;;;;;;;8.46;84.93;100698.97;5015530;28;20206;-64
2020/12/23 00:28:38;;;;;;;5.23;3.30;;;;;;;8.45;84.48;100699.03;5019019;28;20561;-65
2020/12/23 00:31:04;;;;;;;7.40;4.10;;;;;;;8.45;84.12;100707.00;5015688;28;20244;-65
2020/12/23 00:33:30;;;;;;;11.03;6.90;;;;;;;8.46;83.74;100698.13;5016512;28;20207;-65
2020/12/23 00:35:56;;;;;;;10.20;7.77;;;;;;;8.46;84.58;100703.41;5022054;28;20208;-66
2020/12/23 00:38:22;;;;;;;8.90;5.80;;;;;;;8.46;84.80;100703.41;5032626;28;20198;-65
2020/12/23 00:40:49;;;;;;;7.33;5.27;;;;;;;8.46;84.80;100704.28;5020536;28;20245;-66
2020/12/23 00:43:15;;;;;;;7.50;4.57;;;;;;;8.45;84.33;100691.09;5016263;28;20223;-65
2020/12/23 00:45:41;;;;;;;10.50;4.17;;;;;;;8.41;84.50;100698.38;5017977;28;20194;-66
2020/12/23 00:48:07;;;;;;;5.93;4.73;;;;;;;8.35;84.13;100696.91;5017062;28;20294;-67
2020/12/23 00:50:34;;;;;;;6.30;4.27;;;;;;;8.33;84.10;100709.41;5016079;28;20219;-65
2020/12/23 00:53:00;;;;;;;5.83;4.27;;;;;;;8.32;84.08;100701.50;5015763;28;20741;-64
2020/12/23 00:55:26;;;;;;;6.20;3.87;;;;;;;8.31;84.90;100708.56;5012718;28;20245;-65
2020/12/23 00:57:52;;;;;;;5.97;3.70;;;;;;;8.29;84.18;100705.16;5017394;28;20686;-67
2020/12/23 01:00:19;;;;;;;6.67;4.00;;;;;;;8.29;85.05;100706.94;5015012;28;20227;-65
2020/12/23 01:02:45;;;;;;;4.83;3.93;;;;;;;8.29;84.99;100702.50;5014187;28;20294;-65
2020/12/23 01:05:11;;;;;;;5.50;4.27;;;;;;;8.31;85.22;100691.81;5012492;28;20195;-66
2020/12/23 01:07:37;;;;;;;8.43;4.00;;;;;;;8.33;85.15;100703.22;5014848;28;20206;-65
2020/12/23 01:10:03;;;;;;;4.20;3.53;;;;;;;8.34;84.61;100710.25;5014121;28;20226;-67
2020/12/23 01:12:29;;;;;;;5.73;4.57;;;;;;;8.36;85.32;100721.66;5014850;28;20214;-65
2020/12/23 01:14:56;;;;;;;6.50;4.87;;;;;;;8.37;84.81;100728.66;5012247;28;20305;-65
2020/12/23 01:17:22;;;;;;;8.63;5.67;;;;;;;8.37;84.58;100722.50;5015651;28;20205;-65
2020/12/23 01:19:48;;;;;;;5.43;4.63;;;;;;;8.35;85.50;100723.44;5020340;28;20222;-66
2020/12/23 01:22:14;;;;;;;5.47;4.57;;;;;;;8.33;85.45;100717.34;5031998;28;20199;-65
2020/12/23 01:24:40;;;;;;;6.80;4.50;;;;;;;8.33;85.43;100727.09;5032167;28;20201;-65
2020/12/23 01:27:06;;;;;;;5.33;4.37;;;;;;;8.31;85.30;100726.28;5029638;28;20200;-65
2020/12/23 01:29:32;;;;;;;6.97;5.20;;;;;;;8.32;85.35;100709.47;5032324;28;20232;-65
2020/12/23 01:31:59;;;;;;;7.60;5.17;;;;;;;8.32;84.78;100712.97;5032033;28;20198;-65
2020/12/23 01:34:25;;;;;;;8.03;5.10;;;;;;;8.32;84.69;100712.97;5031684;28;20226;-65
2020/12/23 01:36:51;;;;;;;12.13;7.40;;;;;;;8.30;84.44;100706.88;5032575;28;20234;-65
2020/12/23 01:39:17;;;;;;;11.37;7.10;;;;;;;8.30;85.31;100703.34;5017766;28;20719;-66
2020/12/23 01:41:43;;;;;;;10.63;6.93;;;;;;;8.29;84.50;100701.63;5032384;28;20202;-65
2020/12/23 01:44:10;;;;;;;9.20;6.37;;;;;;;8.28;85.30;100703.44;5031516;28;20199;-66
2020/12/23 01:46:37;;;;;;;8.00;5.93;;;;;;;8.27;84.86;100696.41;5031848;28;20292;-65
2020/12/23 01:49:06;;;;;;;12.00;6.90;;;;;;;8.28;84.69;100695.47;5031204;28;20261;-66
2020/12/23 01:51:34;;;;;;;9.70;6.73;;;;;;;8.27;85.13;100701.72;5032054;28;20206;-65
2020/12/23 01:54:00;;;;;;;8.47;6.53;;;;;;;8.27;85.66;100692.91;5031394;28;20582;-66
2020/12/23 01:56:26;;;;;;;10.53;6.67;;;;;;;8.25;84.95;100700.94;5031509;28;20198;-66
2020/12/23 01:58:53;;;;;;;6.47;4.93;;;;;;;8.25;85.24;100694.75;5032113;28;20252;-65
2020/12/23 02:01:20;;;;;;;7.83;4.70;;;;;;;8.24;85.46;100703.69;5030978;28;20233;-66
2020/12/23 02:03:47;;;;;;;6.83;4.27;;;;;;;8.23;85.64;100694.03;5031930;28;20241;-64
2020/12/23 02:06:15;;;;;;;8.30;4.93;;;;;;;8.22;85.52;100682.56;5031222;28;20646;-65
2020/12/23 02:08:42;;;;;;;8.13;4.63;;;;;;;8.23;85.67;100683.41;5032054;28;20289;-65
2020/12/23 02:11:10;;;;;;;11.10;6.13;;;;;;;8.23;85.49;100689.56;5031275;28;20555;-65
2020/12/23 02:13:40;;;;;;;10.30;6.03;;;;;;;8.23;85.56;100684.28;5031463;28;20204;-65
2020/12/23 02:16:06;;;;;;;10.10;7.20;;;;;;;8.24;86.05;100682.47;5031230;28;20202;-65
2020/12/23 02:18:33;;;;;;;14.00;8.13;;;;;;;8.23;86.03;100673.66;5031744;28;20550;-65
2020/12/23 02:20:59;;;;;;;10.93;7.47;;;;;;;8.22;85.71;100669.28;5031368;28;20210;-65
2020/12/23 02:23:26;;;;;;;10.57;8.23;;;;;;;8.21;85.20;100669.38;5030732;28;20208;-65
2020/12/23 02:25:52;;;;;;;17.23;8.17;;;;;;;8.21;85.12;100677.31;5033405;28;20206;-65
2020/12/23 02:28:18;;;;;;;10.63;7.17;;;;;;;8.19;85.11;100677.41;5034565;28;20202;-65
2020/12/23 02:30:44;;;;;;;13.83;7.23;;;;;;;8.19;86.15;100676.53;5035870;28;20226;-65
2020/12/23 02:33:10;;;;;;;11.70;8.13;;;;;;;8.19;85.29;100684.50;5028752;28;20615;-65
2020/12/23 02:35:36;;;;;;;12.13;8.63;;;;;;;8.16;85.66;100682.88;5027290;28;20221;-65
2020/12/23 02:38:02;;;;;;;10.43;7.83;;;;;;;8.16;86.01;100679.34;5022008;28;20260;-65
2020/12/23 02:40:29;;;;;;;11.70;7.90;;;;;;;8.14;85.59;100679.44;5034242;28;20226;-65
2020/12/23 02:42:55;;;;;;;13.07;8.43;;;;;;;8.15;86.27;100682.94;5035379;28;20205;-65
2020/12/23 02:45:22;;;;;;;12.03;8.43;;;;;;;8.16;86.20;100687.31;5034395;28;20195;-65
2020/12/23 02:47:48;;;;;;;11.37;7.97;;;;;;;8.16;85.85;100698.78;5035101;28;22861;-65
2020/12/23 02:50:14;;;;;;;12.13;8.57;;;;;;;8.14;85.56;100698.00;5034667;28;20801;-65
2020/12/23 02:52:40;;;;;;;12.37;8.63;;;;;;;8.16;86.28;100706.75;5020494;28;20214;-65
2020/12/23 02:55:06;;;;;;;14.80;9.90;;;;;;;8.17;85.99;100695.19;5035222;28;20678;-65
2020/12/23 02:57:33;;;;;;;11.40;8.03;;;;;;;8.17;86.69;100695.19;5034908;28;20202;-66
2020/12/23 02:59:59;;;;;;;12.37;8.03;;;;;;;8.16;86.38;100701.44;5034308;28;20626;-65
2020/12/23 03:02:25;;;;;;;10.07;7.13;;;;;;;8.17;86.12;100694.34;5034899;28;20204;-65
2020/12/23 03:04:51;;;;;;;11.20;8.00;;;;;;;8.18;86.91;100686.28;5041284;28;20202;-65
2020/12/23 03:07:17;;;;;;;17.87;9.67;;;;;;;8.17;86.03;100681.94;5039788;28;20198;-65
2020/12/23 03:09:43;;;;;;;14.73;8.57;;;;;;;8.18;86.15;100686.28;5034196;28;20218;-66
2020/12/23 03:12:09;;;;;;;12.30;8.47;;;;;;;8.18;86.13;100686.28;5034571;28;20198;-65
2020/12/23 03:14:36;;;;;;;12.30;8.40;;;;;;;8.18;85.95;100683.66;5034611;28;20576;-65
2020/12/23 03:17:02;;;;;;;12.90;8.43;;;;;;;8.19;86.33;100677.41;5034746;28;20562;-65
2020/12/23 03:19:28;;;;;;;13.97;8.33;;;;;;;8.19;86.10;100674.75;5059396;22;20243;-65
2020/12/23 03:21:54;;;;;;;13.20;8.50;;;;;;;8.20;86.55;100673.81;5040217;28;20202;-66
2020/12/23 03:24:20;;;;;;;21.90;9.30;;;;;;;8.21;86.12;100669.38;5034009;28;20252;-64
2020/12/23 03:26:46;;;;;;;14.47;9.83;;;;;;;8.21;86.67;100662.25;5034140;28;20198;-64
2020/12/23 03:29:12;;;;;;;16.87;9.77;;;;;;;8.21;86.58;100658.75;5034475;28;20202;-64
2020/12/23 03:31:40;;;;;;;17.53;10.10;;;;;;;8.21;86.29;100653.44;5033067;28;20216;-65
2020/12/23 03:34:06;;;;;;;15.33;10.07;;;;;;;8.21;86.21;100672.88;5022130;28;20229;-64
2020/12/23 03:36:32;;;;;;;13.57;9.10;;;;;;;8.22;86.61;100676.38;5034105;28;20224;-64
2020/12/23 03:38:58;;;;;;;15.20;8.93;;;;;;;8.23;86.54;100681.63;5033193;28;20202;-65
2020/12/23 03:41:24;;;;;;;12.43;8.90;;;;;;;8.23;86.38;100673.66;5025398;28;20199;-64
2020/12/23 03:43:50;;;;;;;13.90;10.20;;;;;;;8.24;86.20;100670.03;5029325;28;20202;-65
2020/12/23 03:46:16;;;;;;;15.63;9.00;;;;;;;8.24;86.35;100664.72;5033705;28;20676;-65
2020/12/23 03:48:43;;;;;;;16.03;10.63;;;;;;;8.24;86.39;100661.25;5033892;28;20293;-65
2020/12/23 03:51:09;;;;;;;12.90;8.70;;;;;;;8.22;86.04;100644.56;5033352;28;20218;-65
2020/12/23 03:53:35;;;;;;;14.57;8.47;;;;;;;8.20;86.32;100657.91;5032819;28;20202;-64
2020/12/23 03:56:01;;;;;;;12.37;8.40;;;;;;;8.17;87.02;100639.47;5033308;28;20222;-64
2020/12/23 03:58:27;;;;;;;12.53;8.23;;;;;;;8.15;86.10;100636.06;5033227;28;20212;-64
2020/12/23 04:00:53;;;;;;;13.23;8.03;;;;;;;8.13;86.31;100637.94;5033510;28;20222;-64
2020/12/23 04:03:19;;;;;;;14.77;9.47;;;;;;;8.12;86.59;100646.81;5032879;28;20202;-65
2020/12/23 04:05:46;;;;;;;15.60;9.87;;;;;;;8.13;86.44;100637.94;5033185;28;20198;-64
2020/12/23 04:08:12;;;;;;;17.07;11.13;;;;;;;8.12;86.81;100657.44;5033069;28;20198;-65
2020/12/23 04:10:40;;;;;;;18.63;11.67;;;;;;;8.14;86.36;100658.22;5033161;28;20214;-64
2020/12/23 04:13:06;;;;;;;21.00;11.87;;;;;;;8.15;86.98;100661.72;5032506;28;20202;-65
2020/12/23 04:15:32;;;;;;;21.90;12.23;;;;;;;8.15;86.74;100659.94;5033440;28;20245;-64
2020/12/23 04:17:58;;;;;;;25.07;13.33;;;;;;;8.16;86.40;100651.03;5032381;28;20289;-65
2020/12/23 04:20:24;;;;;;;22.47;11.77;;;;;;;8.16;86.76;100656.34;5032913;28;20225;-65
2020/12/23 04:22:51;;;;;;;19.37;11.30;;;;;;;8.14;86.30;100647.59;5019645;28;20203;-64
2020/12/23 04:25:17;;;;;;;17.10;10.73;;;;;;;8.15;86.75;100645.81;5032054;28;20202;-64
2020/12/23 05:01:21;;;;;;;30.50;13.73;;;;;;;8.08;87.21;100632.00;5023935;28;20193;-64
2020/12/23 05:03:47;;;;;;;26.07;12.87;;;;;;;8.09;87.49;100628.41;5031475;28;20297;-64
2020/12/23 05:06:14;;;;;;;28.77;12.73;;;;;;;8.10;87.55;100626.63;5031845;28;20255;-64
2020/12/23 05:08:40;;;;;;;25.07;12.13;;;;;;;8.10;87.46;100630.13;5032458;28;20206;-65
2020/12/23 05:11:07;;;;;;;27.67;12.50;;;;;;;8.11;87.31;100629.19;5031738;28;20593;-65
2020/12/23 05:13:33;;;;;;;26.83;13.37;;;;;;;8.13;87.63;100635.28;5031455;28;20202;-64
2020/12/23 05:15:59;;;;;;;28.97;15.50;;;;;;;8.14;86.82;100630.81;5021049;28;20231;-65
2020/12/23 05:18:31;;;;;;;31.80;16.23;;;;;;;8.16;88.20;100626.28;5016519;28;20210;-64
2020/12/23 05:20:57;;;;;;;33.40;16.30;;;;;;;8.15;88.09;100622.78;5029281;28;20256;-65
2020/12/23 05:23:24;;;;;;;35.53;17.47;;;;;;;8.17;87.62;100630.66;5027795;28;20305;-64
2020/12/23 05:25:51;;;;;;;30.90;15.70;;;;;;;8.18;87.64;100629.72;5029147;28;20208;-64
2020/12/23 05:28:17;;;;;;;31.17;15.60;;;;;;;8.17;87.21;100612.94;5030591;28;20646;-65
2020/12/23 05:30:43;;;;;;;25.93;13.33;;;;;;;8.19;87.73;100608.44;5032094;28;20236;-64
2020/12/23 05:33:10;;;;;;;30.67;14.33;;;;;;;8.19;87.12;100605.78;5030843;28;20256;-65
2020/12/23 05:35:37;;;;;;;29.67;13.77;;;;;;;8.19;88.13;100597.81;5031175;28;20222;-65
2020/12/23 05:38:04;;;;;;;28.70;15.23;;;;;;;8.19;87.52;100603.13;5031428;28;20252;-65
2020/12/23 05:40:30;;;;;;;34.03;15.17;;;;;;;8.19;87.44;100605.78;5030716;28;20233;-64
2020/12/23 05:42:57;;;;;;;30.67;15.23;;;;;;;8.20;87.98;100598.66;5030976;28;20194;-65
2020/12/23 05:45:26;;;;;;;30.97;15.83;;;;;;;8.20;87.82;100601.31;5031355;28;20225;-64
2020/12/23 05:47:52;;;;;;;30.40;17.40;;;;;;;8.19;87.30;100605.78;5028808;28;20559;-64
2020/12/23 05:50:19;;;;;;;30.60;16.80;;;;;;;8.21;88.25;100608.34;5031859;28;20224;-65
2020/12/23 05:52:47;;;;;;;30.77;15.10;;;;;;;8.21;88.21;100609.19;5030360;28;20603;-64
2020/12/23 05:55:17;;;;;;;30.07;13.90;;;;;;;8.20;88.31;100594.22;5026360;28;20326;-64
2020/12/23 05:57:44;;;;;;;28.83;14.13;;;;;;;8.20;87.66;100588.91;5025522;28;20651;-64
2020/12/23 06:00:10;;;;;;;37.70;13.80;;;;;;;8.20;88.00;100591.56;5029987;28;20586;-64
2020/12/23 06:02:50;;;;;;;27.23;14.17;;;;;;;8.19;87.42;100592.50;5029165;28;20304;-63
2020/12/23 06:05:19;;;;;;;27.07;13.03;;;;;;;8.21;87.59;100605.69;5030510;28;20222;-64
2020/12/23 06:07:50;;;;;;;25.27;12.80;;;;;;;8.20;87.75;100604.84;5029863;28;20202;-64
2020/12/23 06:10:21;;;;;;;22.67;12.40;;;;;;;8.22;88.70;100612.72;5030646;28;20224;-64
2020/12/23 06:12:47;;;;;;;26.70;12.37;;;;;;;8.22;88.43;100608.25;5029638;28;20232;-64
2020/12/23 06:15:17;;;;;;;30.70;13.23;;;;;;;8.21;87.97;100603.91;5029859;28;20218;-64
2020/12/23 06:17:46;;;;;;;23.03;12.13;;;;;;;8.22;88.38;100595.00;5027791;28;20225;-65
2020/12/23 06:20:12;;;;;;;25.37;12.97;;;;;;;8.22;88.42;100589.69;5030074;28;20276;-64
2020/12/23 06:22:41;;;;;;;22.40;12.30;;;;;;;8.21;88.60;100580.03;5026032;28;20596;-65
2020/12/23 06:25:08;;;;;;;25.43;12.40;;;;;;;8.21;88.51;100579.16;5027628;28;20198;-63
2020/12/23 06:27:34;;;;;;;26.40;12.90;;;;;;;8.21;88.52;100582.66;5030706;28;20206;-64
2020/12/23 06:30:00;;;;;;;26.40;13.40;;;;;;;8.21;88.52;100576.50;5028495;28;20309;-64
2020/12/23 06:32:28;;;;;;;27.07;13.40;;;;;;;8.22;88.38;100580.88;5030505;28;20249;-64
2020/12/23 06:34:58;;;;;;;26.63;12.70;;;;;;;8.22;88.10;100583.53;5030263;28;20759;-64
2020/12/23 06:37:27;;;;;;;27.87;12.93;;;;;;;8.23;88.47;100585.25;5030696;28;20206;-63
2020/12/23 06:39:54;;;;;;;30.60;14.13;;;;;;;8.24;89.02;100584.31;5014143;28;20218;-64
2020/12/23 06:42:30;;;;;;;27.27;12.87;;;;;;;8.27;88.48;100589.41;5021880;28;20202;-65
2020/12/23 06:45:10;;;;;;;20.77;11.27;;;;;;;8.26;88.54;100582.41;5030685;28;20198;-64
2020/12/23 06:47:38;;;;;;;22.17;12.10;;;;;;;8.27;88.21;100590.28;5029893;28;20198;-64
2020/12/23 06:50:06;;;;;;;24.77;12.30;;;;;;;8.27;88.80;100584.97;5030791;28;20233;-64
2020/12/23 06:52:41;;;;;;;34.67;15.63;;;;;;;8.28;88.64;100588.47;5029481;28;20205;-63
2020/12/23 06:55:08;;;;;;;33.27;16.37;;;;;;;8.28;88.64;100586.69;5031022;28;20272;-65
2020/12/23 06:57:56;;;;;;;27.63;13.40;;;;;;;8.28;88.50;100592.00;5030385;28;20202;-66
2020/12/23 07:00:41;;;;;;;32.10;14.43;;;;;;;8.29;87.71;100587.53;5019097;28;20269;-64
2020/12/23 07:03:09;;;;;;;32.40;14.27;;;;;;;8.29;88.50;100588.41;5016898;28;20212;-65
2020/12/23 07:05:39;;;;;;;29.60;13.30;;;;;;;8.28;88.56;100578.72;5016039;28;20207;-63
2020/12/23 07:08:06;;;;;;;30.03;13.27;;;;;;;8.29;88.28;100580.44;5018099;28;20650;-64
2020/12/23 07:10:33;;;;;;;28.17;13.73;;;;;;;8.28;88.61;100581.38;5012260;28;20230;-64
2020/12/23 07:13:02;;;;;;;28.50;13.17;;;;;;;8.28;88.12;100584.03;5018613;28;20203;-64
2020/12/23 07:15:29;;;;;;;26.47;13.27;;;;;;;8.29;88.91;100588.41;5022264;28;20276;-64
2020/12/23 07:18:01;;;;;;;26.87;13.23;;;;;;;8.27;88.20;100590.28;5028725;28;20206;-64
2020/12/23 07:20:31;;;;;;;25.50;12.60;;;;;;;8.29;88.28;100592.84;5026911;28;20292;-64
2020/12/23 07:23:03;;;;;;;25.73;13.00;;;;;;;8.28;88.40;100597.28;5027682;28;20213;-63
2020/12/23 07:25:31;;;;;;;31.97;12.90;;;;;;;8.28;88.36;100605.25;5018660;28;20223;-65
2020/12/23 07:27:59;;;;;;;27.67;13.30;;;;;;;8.28;88.32;100591.13;5017219;28;20569;-64
2020/12/23 07:30:26;;;;;;;26.40;12.90;;;;;;;8.30;88.36;100583.94;5017823;28;20218;-64
2020/12/23 07:33:01;;;;;;;24.93;12.13;;;;;;;8.29;88.77;100583.09;5019633;28;20571;-64
2020/12/23 07:35:28;;;;;;;26.83;12.63;;;;;;;8.30;88.33;100583.94;5014080;28;20226;-64
2020/12/23 07:37:58;;;;;;;26.47;12.80;;;;;;;8.30;88.57;100574.19;5014786;28;20201;-64
2020/12/23 07:40:26;;;;;;;24.67;12.27;;;;;;;8.30;88.99;100579.50;5014903;28;20695;-65
2020/12/23 07:42:52;;;;;;;27.17;11.87;;;;;;;8.30;88.82;100568.03;5016332;28;20561;-65
2020/12/23 07:45:20;;;;;;;26.03;12.80;;;;;;;8.31;88.53;100575.06;5019166;28;20610;-64
2020/12/23 07:48:01;;;;;;;26.87;13.13;;;;;;;8.30;88.90;100574.19;5018634;28;20569;-65
2020/12/23 07:50:29;;;;;;;26.17;12.90;;;;;;;8.30;88.44;100562.72;5020754;28;20280;-64
2020/12/23 07:52:56;;;;;;;26.10;13.27;;;;;;;8.28;88.51;100560.16;5023575;28;20196;-65
2020/12/23 07:55:23;;;;;;;28.70;12.33;;;;;;;8.29;88.33;100561.00;5019713;28;20218;-64
2020/12/23 07:57:50;;;;;;;25.70;12.00;;;;;;;8.30;88.39;100560.94;5030945;28;20225;-64
2020/12/23 08:00:17;;;;;;;27.37;12.83;;;;;;;8.30;88.82;100565.38;5022016;28;20557;-65
2020/12/23 08:02:43;;;;;;;29.43;13.27;;;;;;;8.30;88.20;100579.50;5013394;28;20213;-64
2020/12/23 08:05:12;;;;;;;31.13;13.47;;;;;;;8.31;89.00;100565.28;5020784;28;20209;-65
2020/12/23 08:07:39;;;;;;;29.13;13.57;;;;;;;8.31;88.58;100570.59;5024640;28;20210;-65
2020/12/23 08:10:07;;;;;;;31.90;14.50;;;;;;;8.31;88.33;100565.28;5022121;28;20218;-62
2020/12/23 08:12:34;;;;;;;37.90;14.37;;;;;;;8.32;88.96;100559.06;5023987;28;20198;-63
2020/12/23 08:15:00;;;;;;;42.93;17.10;;;;;;;8.34;88.52;100565.16;5017796;28;20219;-65
2020/12/23 08:17:26;;;;;;;42.93;16.73;;;;;;;8.35;88.63;100560.72;5019433;28;20236;-64
2020/12/23 08:20:03;;;;;;;41.43;16.23;;;;;;;8.35;89.04;100550.94;5015062;28;20718;-64
2020/12/23 08:22:30;;;;;;;40.00;17.03;;;;;;;8.37;88.94;100552.66;5012398;28;20663;-64
2020/12/23 08:25:01;;;;;;;48.67;18.53;;;;;;;8.37;88.74;100550.88;5016785;28;20604;-64
2020/12/23 08:27:28;;;;;;;49.70;18.73;;;;;;;8.39;89.17;100553.44;5017486;28;20218;-65
2020/12/23 08:29:55;;;;;;;42.87;17.60;;;;;;;8.40;88.80;100555.16;5016791;28;20218;-64
2020/12/23 08:32:26;;;;;;;41.53;17.70;;;;;;;8.41;88.80;100547.13;5018340;28;20198;-64
2020/12/23 08:34:53;;;;;;;43.07;16.33;;;;;;;8.43;89.47;100539.03;5017956;28;20269;-63
2020/12/23 08:37:25;;;;;;;43.63;16.60;;;;;;;8.44;89.12;100543.41;5018513;28;20213;-65
2020/12/23 08:39:56;;;;;;;40.57;15.60;;;;;;;8.44;89.29;100540.75;5024505;28;20596;-64
2020/12/23 08:42:23;;;;;;;40.50;16.50;;;;;;;8.44;89.18;100541.59;5020126;28;20246;-62
2020/12/23 08:44:51;;;;;;;43.57;17.87;;;;;;;8.44;89.23;100546.91;5016940;28;20206;-64
2020/12/23 08:47:22;;;;;;;40.47;17.80;;;;;;;8.45;88.96;100531.84;5021781;28;20210;-67
2020/12/23 08:49:48;;;;;;;38.97;16.73;;;;;;;8.45;89.00;100531.84;5017910;28;20703;-65
2020/12/23 08:52:18;;;;;;;41.53;17.40;;;;;;;8.46;89.13;100537.06;5014699;28;20290;-65
2020/12/23 08:54:44;;;;;;;37.83;16.83;;;;;;;8.47;89.20;100536.13;5018256;28;20226;-66
2020/12/23 08:57:12;;;;;;;43.10;18.80;;;;;;;8.48;89.27;100534.34;5011815;28;20203;-65
2020/12/23 08:59:40;;;;;;;43.60;19.57;;;;;;;8.49;89.25;100528.09;5028810;28;20226;-64
2020/12/23 09:02:10;;;;;;;41.03;16.37;;;;;;;8.50;88.88;100532.44;5027777;28;20225;-64
2020/12/23 09:04:36;;;;;;;37.80;17.10;;;;;;;8.52;88.96;100535.88;5030127;28;20289;-65
2020/12/23 09:07:03;;;;;;;39.73;16.07;;;;;;;8.52;89.32;100539.38;5023021;28;20206;-65
2020/12/23 09:09:29;;;;;;;41.47;17.13;;;;;;;8.54;89.08;100537.50;5012253;28;20405;-65
2020/12/23 09:11:57;;;;;;;41.63;16.67;;;;;;;8.56;89.46;100540.06;5035973;28;20205;-65
2020/12/23 09:14:30;;;;;;;39.77;16.87;;;;;;;8.56;89.30;100538.28;5031703;28;20366;-64
2020/12/23 09:17:01;;;;;;;38.43;16.77;;;;;;;8.58;89.18;100543.50;5021463;28;20213;-65
2020/12/23 09:19:44;;;;;;;42.63;18.20;;;;;;;8.59;88.94;100542.56;5015706;28;20241;-66
2020/12/23 09:22:11;;;;;;;36.43;16.73;;;;;;;8.61;89.74;100545.97;5024353;28;20654;-65
2020/12/23 09:24:37;;;;;;;37.73;15.80;;;;;;;8.61;89.32;100540.66;5024541;28;20286;-65
2020/12/23 09:27:21;;;;;;;39.63;15.63;;;;;;;8.63;89.22;100538.75;5030283;28;20285;-65
2020/12/23 09:29:49;;;;;;;39.87;16.40;;;;;;;8.64;89.03;100533.38;5069645;22;20975;-65
2020/12/23 09:32:15;;;;;;;36.80;16.37;;;;;;;8.65;89.55;100518.31;5069136;28;20220;-66
2020/12/23 09:34:41;;;;;;;34.23;15.73;;;;;;;8.66;89.37;100520.00;5063805;28;20597;-66
2020/12/23 09:37:07;;;;;;;39.07;16.40;;;;;;;8.67;89.26;100513.75;5067229;28;20539;-66
2020/12/23 09:39:36;;;;;;;38.33;15.60;;;;;;;8.68;89.39;100504.84;5060805;28;20274;-66
2020/12/23 09:42:04;;;;;;;36.33;14.00;;;;;;;8.72;89.71;100502.88;5066825;28;20242;-66
2020/12/23 09:44:30;;;;;;;40.03;16.27;;;;;;;8.72;89.17;100494.91;5066685;28;20203;-66
2020/12/23 09:46:57;;;;;;;43.50;16.40;;;;;;;8.75;89.78;100489.44;5068439;28;20307;-66
2020/12/23 09:49:23;;;;;;;42.10;16.57;;;;;;;8.76;89.36;100493.81;5069717;28;20225;-66
2020/12/23 09:51:49;;;;;;;46.27;18.20;;;;;;;8.80;89.46;100492.66;5066426;28;20279;-66
2020/12/23 09:54:16;;;;;;;43.70;16.43;;;;;;;8.81;89.71;100484.59;5068879;28;20209;-66
2020/12/23 09:56:52;;;;;;;42.43;17.40;;;;;;;8.85;89.67;100485.28;5066298;28;20204;-66
2020/12/23 09:59:18;;;;;;;44.97;16.30;;;;;;;8.87;89.84;100480.75;5067418;28;20212;-66
2020/12/23 10:01:44;;;;;;;44.17;17.50;;;;;;;8.90;89.97;100472.59;5068505;28;20673;-66
2020/12/23 10:04:12;;;;;;;42.40;17.03;;;;;;;8.93;89.71;100477.72;5068701;28;20605;-66
2020/12/23 10:06:38;;;;;;;42.47;17.07;;;;;;;8.94;89.84;100471.47;5069153;28;20265;-65
2020/12/23 10:09:05;;;;;;;46.07;16.77;;;;;;;8.96;89.67;100458.94;5068901;28;20686;-66
2020/12/23 10:11:31;;;;;;;42.60;17.43;;;;;;;8.98;89.98;100446.41;5068283;28;20200;-66
2020/12/23 10:13:59;;;;;;;41.33;17.33;;;;;;;9.01;89.84;100446.25;5069148;28;20614;-65
2020/12/23 10:16:30;;;;;;;45.83;18.07;;;;;;;9.02;90.00;100430.22;5069211;28;20243;-66
2020/12/23 10:18:56;;;;;;;47.60;18.97;;;;;;;9.05;89.63;100424.72;5069181;28;20235;-66
2020/12/23 10:21:23;;;;;;;45.60;17.87;;;;;;;9.10;89.72;100415.63;5068705;28;20193;-65
2020/12/23 10:23:49;;;;;;;52.57;18.97;;;;;;;9.13;90.22;100415.44;5067993;28;20197;-65
2020/12/23 10:26:15;;;;;;;44.80;19.23;;;;;;;9.17;89.46;100406.31;5068902;28;20629;-65
2020/12/23 10:28:41;;;;;;;51.40;20.23;;;;;;;9.22;89.75;100406.88;5068389;28;20784;-65
2020/12/23 10:31:07;;;;;;;54.97;19.47;;;;;;;9.27;90.27;100405.66;5069677;28;20669;-65
2020/12/23 10:33:34;;;;;;;49.97;18.80;;;;;;;9.31;89.72;100404.53;5068858;28;20201;-65
2020/12/23 10:36:01;;;;;;;49.33;18.63;;;;;;;9.35;89.97;100410.50;5069943;28;20220;-65
2020/12/23 10:38:28;;;;;;;49.50;18.40;;;;;;;9.39;89.91;100404.03;5068954;28;20201;-65
2020/12/23 10:40:55;;;;;;;46.93;18.63;;;;;;;9.44;89.95;100398.44;5065355;28;20204;-65
2020/12/23 10:43:21;;;;;;;44.93;17.97;;;;;;;9.46;89.61;100388.56;5060200;28;20213;-65
2020/12/23 10:45:47;;;;;;;40.87;17.93;;;;;;;9.49;89.93;100391.91;5061111;28;20193;-65
2020/12/23 10:48:13;;;;;;;41.90;16.93;;;;;;;9.53;90.19;100377.44;5073554;28;20253;-65
2020/12/23 10:50:39;;;;;;;37.70;17.30;;;;;;;9.56;89.71;100373.75;5072561;28;20221;-65
2020/12/23 10:53:05;;;;;;;38.60;16.43;;;;;;;9.58;89.73;100372.69;5072727;28;20196;-64
2020/12/23 10:55:32;;;;;;;35.50;16.67;;;;;;;9.60;90.11;100373.47;5070757;28;20255;-64
2020/12/23 10:57:58;;;;;;;37.67;17.23;;;;;;;9.62;90.16;100368.91;5071616;28;20653;-64
2020/12/23 11:00:25;;;;;;;36.60;15.73;;;;;;;9.64;89.80;100363.47;5073387;28;20589;-65
2020/12/23 11:02:51;;;;;;;32.47;15.07;;;;;;;9.66;89.72;100361.59;5064863;28;20204;-65
2020/12/23 11:05:17;;;;;;;27.53;15.00;;;;;;;9.68;89.74;100357.84;5068906;28;20196;-65
2020/12/23 11:07:43;;;;;;;35.47;15.83;;;;;;;9.70;89.85;100355.94;5070161;28;20280;-64
2020/12/23 11:10:09;;;;;;;28.70;14.07;;;;;;;9.71;90.08;100349.69;5066310;28;20303;-64
2020/12/23 11:12:36;;;;;;;29.17;14.50;;;;;;;9.74;89.85;100356.59;5070086;28;20197;-65
2020/12/23 11:15:03;;;;;;;29.17;15.00;;;;;;;9.75;89.75;100351.19;5072112;28;20224;-64
2020/12/23 11:17:29;;;;;;;34.07;16.20;;;;;;;9.76;90.14;100349.38;5065570;28;20658;-64
2020/12/23 11:19:55;;;;;;;33.83;16.50;;;;;;;9.78;89.92;100344.81;5071743;28;20282;-65
2020/12/23 11:22:21;;;;;;;30.00;14.83;;;;;;;9.79;90.07;100335.91;5066563;28;20203;-64
2020/12/23 11:24:47;;;;;;;35.03;16.90;;;;;;;9.80;89.82;100334.94;5068028;28;20563;-65
2020/12/23 11:27:15;;;;;;;34.27;16.90;;;;;;;9.82;89.87;100330.38;5072333;28;20189;-65
2020/12/23 11:29:42;;;;;;;30.40;15.10;;;;;;;9.83;89.69;100328.56;5072329;28;20235;-64
2020/12/23 11:32:08;;;;;;;26.23;14.53;;;;;;;9.84;89.85;100328.47;5071101;28;20228;-63
2020/12/23 11:34:36;;;;;;;29.27;13.87;;;;;;;9.87;89.85;100317.63;5072688;28;20212;-64
2020/12/23 11:37:02;;;;;;;28.13;14.83;;;;;;;9.88;89.68;100324.66;5072147;28;20243;-65
2020/12/23 11:39:28;;;;;;;27.20;14.17;;;;;;;9.91;89.94;100310.28;5072020;28;20271;-65
2020/12/23 11:41:55;;;;;;;34.73;14.83;;;;;;;9.92;90.01;100304.88;5071394;28;20250;-64
2020/12/23 11:44:21;;;;;;;25.00;12.50;;;;;;;9.93;90.00;100301.25;5070665;28;20197;-65
2020/12/23 11:46:48;;;;;;;28.17;14.00;;;;;;;9.96;89.96;100297.56;5071059;28;20207;-64
2020/12/23 11:49:14;;;;;;;23.90;14.23;;;;;;;9.97;89.83;100294.78;5069869;28;20910;-65
2020/12/23 11:51:40;;;;;;;25.43;12.17;;;;;;;10.00;89.69;100288.41;5068052;28;20292;-64
2020/12/23 11:54:07;;;;;;;25.43;12.50;;;;;;;10.02;89.74;100279.38;5070401;28;20221;-65
2020/12/23 11:56:33;;;;;;;21.80;12.90;;;;;;;10.04;90.03;100269.47;5067759;28;20893;-65